createdAt,value
2018-05-16T00:02:15.346Z,74887.97
2018-05-16T00:04:46.323Z,74903.16
2018-05-16T00:07:17.663Z,74872.79
2018-05-16T00:09:49.487Z,74899.10
2018-05-16T00:12:21.181Z,74908.21
2018-05-16T00:14:52.568Z,74908.21
2018-05-16T00:17:24.379Z,74910.23
2018-05-16T00:19:55.889Z,74914.28
2018-05-16T00:22:27.680Z,74907.20
2018-05-16T00:24:59.274Z,74914.28
2018-05-16T00:27:30.615Z,74918.33
2018-05-16T00:30:02.269Z,74918.33
2018-05-16T00:32:33.895Z,74912.26
2018-05-16T00:35:05.408Z,74899.10
2018-05-16T00:37:37.276Z,74884.94
2018-05-16T00:40:08.907Z,74900.11
2018-05-16T00:42:40.230Z,74892.02
2018-05-16T00:45:12.146Z,74922.38
2018-05-16T00:47:43.803Z,74907.20
2018-05-16T00:50:15.435Z,74915.30
2018-05-16T00:52:46.791Z,74914.28
2018-05-16T00:55:18.684Z,74917.31
2018-05-16T00:57:49.601Z,74932.50
2018-05-16T01:00:21.152Z,74930.47
2018-05-16T01:02:53.165Z,74929.46
2018-05-16T01:05:24.594Z,74930.47
2018-05-16T01:07:56.259Z,74909.22
2018-05-16T01:10:28.015Z,74933.52
2018-05-16T01:12:59.551Z,74928.45
2018-05-16T01:15:31.449Z,74932.50
2018-05-16T01:18:02.935Z,74912.26
2018-05-16T01:20:34.440Z,74918.33
2018-05-16T01:23:05.878Z,74911.25
2018-05-16T01:25:37.942Z,74918.33
2018-05-16T01:28:09.731Z,74874.81
2018-05-16T01:30:41.211Z,74899.10
2018-05-16T01:33:12.790Z,74901.13
2018-05-16T01:35:44.759Z,74903.16
2018-05-16T01:38:16.200Z,74900.11
2018-05-16T01:40:47.754Z,74874.81
2018-05-16T01:43:19.575Z,74857.61
2018-05-16T01:45:50.975Z,74877.85
2018-05-16T01:48:22.646Z,74878.86
2018-05-16T01:50:54.670Z,74879.88
2018-05-16T01:53:26.302Z,74888.98
2018-05-16T01:55:57.913Z,74911.25
2018-05-16T01:58:29.999Z,74915.30
2018-05-16T02:01:01.920Z,74901.13
2018-05-16T02:03:33.731Z,74916.30
2018-05-16T02:06:05.735Z,74929.46
2018-05-16T02:08:37.683Z,74928.45
2018-05-16T02:11:09.343Z,74903.16
2018-05-16T02:13:41.009Z,74919.34
2018-05-16T02:16:12.772Z,74892.02
2018-05-16T02:18:44.915Z,74909.22
2018-05-16T02:21:16.643Z,74919.34
2018-05-16T02:23:48.006Z,74929.46
2018-05-16T02:26:19.734Z,74921.36
2018-05-16T02:28:50.847Z,74928.45
2018-05-16T02:31:22.433Z,74928.45
2018-05-16T02:33:53.947Z,74932.50
2018-05-16T02:36:25.109Z,74913.27
2018-05-16T02:38:57.052Z,74927.44
2018-05-16T02:41:28.722Z,74942.63
2018-05-16T02:44:00.835Z,74939.58
2018-05-16T02:46:32.755Z,74931.48
2018-05-16T02:49:04.119Z,74930.47
2018-05-16T02:51:35.615Z,74935.53
2018-05-16T02:54:07.407Z,74915.30
2018-05-16T02:56:39.023Z,74930.47
2018-05-16T02:59:10.768Z,74947.68
2018-05-16T03:01:42.731Z,74941.61
2018-05-16T03:04:14.263Z,74955.77
2018-05-16T03:06:46.705Z,74952.73
2018-05-16T03:09:18.105Z,74947.68
2018-05-16T03:11:50.077Z,74954.77
2018-05-16T03:14:21.352Z,74947.68
2018-05-16T03:16:54.007Z,74948.69
2018-05-16T03:19:25.642Z,74946.67
2018-05-16T03:21:57.149Z,74951.73
2018-05-16T03:24:28.501Z,74958.81
2018-05-16T03:27:00.102Z,74953.75
2018-05-16T03:29:31.811Z,74963.88
2018-05-16T03:32:03.413Z,74963.88
2018-05-16T03:34:34.969Z,74968.93
2018-05-16T03:37:06.877Z,74968.93
2018-05-16T03:39:38.354Z,74962.86
2018-05-16T03:42:09.835Z,74969.94
2018-05-16T03:44:41.769Z,74971.97
2018-05-16T03:47:13.207Z,74953.75
2018-05-16T03:49:44.608Z,74964.88
2018-05-16T03:52:16.255Z,74932.50
2018-05-16T03:54:47.995Z,74916.30
2018-05-16T03:57:27.763Z,74925.41
2018-05-16T04:03:20.926Z,74879.88
2018-05-16T04:05:52.485Z,74852.55
2018-05-16T04:08:24.232Z,74851.53
2018-05-16T04:10:56.754Z,74864.70
2018-05-16T04:13:28.764Z,74910.23
2018-05-16T04:16:00.880Z,74906.19
2018-05-16T04:18:32.603Z,74917.31
2018-05-16T04:21:04.577Z,74927.44
2018-05-16T04:23:36.043Z,74926.42
2018-05-16T04:26:08.015Z,74935.53
2018-05-16T04:28:39.601Z,74926.42
2018-05-16T04:31:11.611Z,74938.57
2018-05-16T04:33:43.540Z,74938.57
2018-05-16T04:36:15.103Z,74937.56
2018-05-16T04:38:46.857Z,74935.53
2018-05-16T04:41:18.679Z,74946.67
2018-05-16T04:43:50.559Z,74945.66
2018-05-16T04:46:22.279Z,74950.72
2018-05-16T04:48:54.815Z,74937.56
2018-05-16T04:51:26.467Z,74913.27
2018-05-16T04:53:57.504Z,74923.39
2018-05-16T04:56:29.336Z,74914.28
2018-05-16T04:59:00.359Z,74939.58
2018-05-16T05:01:31.764Z,74935.53
2018-05-16T05:04:07.723Z,74919.34
2018-05-16T05:06:39.529Z,74915.30
2018-05-16T05:09:11.470Z,74933.52
2018-05-16T05:11:43.379Z,74925.41
2018-05-16T05:16:51.712Z,74898.09
2018-05-16T05:19:23.639Z,74899.10
2018-05-16T05:21:55.471Z,74853.56
2018-05-16T05:24:27.403Z,74900.11
2018-05-16T05:26:59.349Z,74879.88
2018-05-16T05:29:31.219Z,74874.81
2018-05-16T05:32:03.021Z,74859.63
2018-05-16T05:34:34.810Z,74881.90
2018-05-16T05:37:06.585Z,74885.95
2018-05-16T05:39:38.032Z,74866.72
2018-05-16T05:42:09.831Z,74851.53
2018-05-16T05:44:41.391Z,74796.89
2018-05-16T05:47:12.671Z,74827.25
2018-05-16T05:49:44.050Z,74839.39
2018-05-16T05:52:15.544Z,74827.25
2018-05-16T05:54:47.152Z,74842.43
2018-05-16T05:57:18.893Z,74824.21
2018-05-16T05:59:49.875Z,74821.17
2018-05-16T06:02:21.400Z,74860.64
2018-05-16T06:04:53.284Z,74884.94
2018-05-16T06:07:25.147Z,74892.02
2018-05-16T06:09:56.111Z,74918.33
2018-05-16T06:12:28.639Z,74903.16
2018-05-16T06:14:59.641Z,74833.32
2018-05-16T06:17:31.098Z,74813.08
2018-05-16T06:20:03.153Z,74801.95
2018-05-16T06:22:34.620Z,74840.41
2018-05-16T06:25:05.992Z,74844.45
2018-05-16T06:27:37.860Z,74820.16
2018-05-16T06:30:09.642Z,74780.70
2018-05-16T06:32:41.242Z,74818.14
2018-05-16T06:35:12.493Z,74775.64
2018-05-16T06:37:43.875Z,74753.38
2018-05-16T06:40:15.548Z,74750.34
2018-05-16T06:42:47.360Z,74771.59
2018-05-16T06:45:19.047Z,74769.56
2018-05-16T06:47:50.543Z,74697.72
2018-05-16T06:50:22.271Z,74781.71
2018-05-16T06:55:19.183Z,74772.60
2018-05-16T06:57:50.476Z,74744.27
2018-05-16T07:00:22.205Z,74800.94
2018-05-16T07:02:53.911Z,74741.23
2018-05-16T07:05:26.735Z,74735.16
2018-05-16T07:07:58.117Z,74641.05
2018-05-16T07:10:29.724Z,74680.52
2018-05-16T07:13:01.435Z,74682.54
2018-05-16T07:15:32.415Z,74703.79
2018-05-16T07:18:03.677Z,74644.09
2018-05-16T07:20:35.034Z,74624.86
2018-05-16T07:25:42.592Z,74737.19
2018-05-16T07:28:13.670Z,74744.27
2018-05-16T07:30:44.667Z,74793.85
2018-05-16T07:33:16.747Z,74791.83
2018-05-16T07:35:47.756Z,74772.60
2018-05-16T07:38:19.139Z,74746.29
2018-05-16T07:40:50.453Z,74682.54
2018-05-16T07:43:21.708Z,74724.03
2018-05-16T07:45:53.895Z,74750.34
2018-05-16T07:48:24.638Z,74738.20
2018-05-16T07:50:55.399Z,74745.28
2018-05-16T07:53:26.483Z,74667.36
2018-05-16T07:55:57.880Z,74712.90
2018-05-16T07:58:29.809Z,74640.03
2018-05-16T08:01:00.572Z,74720.99
2018-05-16T08:03:31.359Z,74728.08
2018-05-16T08:06:02.521Z,74701.77
2018-05-16T08:08:33.409Z,74657.23
2018-05-16T08:11:04.135Z,74623.84
2018-05-16T08:13:35.176Z,74609.67
2018-05-16T08:16:06.408Z,74593.48
2018-05-16T08:18:37.691Z,74548.97
2018-05-16T08:21:09.472Z,74578.31
2018-05-16T08:23:40.223Z,74528.73
2018-05-16T08:26:11.759Z,74476.11
2018-05-16T08:28:42.562Z,74420.45
2018-05-16T08:31:13.496Z,74392.13
2018-05-16T08:33:45.270Z,74563.13
2018-05-16T08:36:16.508Z,74584.38
2018-05-16T08:38:48.014Z,74548.97
2018-05-16T08:41:19.068Z,74571.22
2018-05-16T08:43:50.984Z,74513.55
2018-05-16T08:46:21.763Z,74549.98
2018-05-16T08:48:52.836Z,74520.63
2018-05-16T08:51:24.247Z,74514.56
2018-05-16T08:53:55.991Z,74475.09
2018-05-16T08:56:27.089Z,74474.08
2018-05-16T08:58:58.365Z,74480.16
2018-05-16T09:01:30.127Z,74456.88
2018-05-16T09:04:01.368Z,74543.91
2018-05-16T09:06:32.199Z,74533.78
2018-05-16T09:09:04.029Z,74490.27
2018-05-16T09:11:34.757Z,74389.08
2018-05-16T09:14:06.147Z,74514.56
2018-05-16T09:16:37.664Z,74447.77
2018-05-16T09:19:08.471Z,74513.55
2018-05-16T09:21:40.435Z,74458.91
2018-05-16T09:24:11.271Z,74476.11
2018-05-16T09:26:42.071Z,74430.57
2018-05-16T09:29:13.119Z,74428.55
2018-05-16T09:31:43.932Z,74264.63
2018-05-16T09:34:14.664Z,74256.53
2018-05-16T09:36:46.660Z,74220.11
2018-05-16T09:39:17.475Z,74343.55
2018-05-16T09:41:48.653Z,74279.80
2018-05-16T09:44:19.498Z,74301.05
2018-05-16T09:46:50.246Z,74315.22
2018-05-16T09:49:21.329Z,74217.08
2018-05-16T09:51:52.075Z,74179.64
2018-05-16T09:54:28.820Z,74166.48
2018-05-16T09:56:59.826Z,74141.19
2018-05-16T09:59:30.648Z,74229.22
2018-05-16T10:02:02.939Z,74257.55
2018-05-16T10:04:34.666Z,74213.02
2018-05-16T10:07:05.514Z,74230.23
2018-05-16T10:09:36.645Z,74137.14
2018-05-16T10:12:07.488Z,74000.55
2018-05-16T10:14:38.374Z,74074.41
2018-05-16T10:17:09.645Z,74249.45
2018-05-16T10:19:40.661Z,74273.73
2018-05-16T10:22:11.404Z,74303.08
2018-05-16T10:24:43.163Z,74294.98
2018-05-16T10:27:13.975Z,74366.83
2018-05-16T10:29:45.563Z,74306.11
2018-05-16T10:32:16.396Z,74299.03
2018-05-16T10:34:47.169Z,74355.70
2018-05-16T10:37:18.686Z,74358.73
2018-05-16T10:39:49.429Z,74336.47
2018-05-16T10:42:20.220Z,74337.48
2018-05-16T10:44:51.282Z,74331.41
2018-05-16T10:47:22.139Z,74327.36
2018-05-16T10:49:52.944Z,74301.05
2018-05-16T10:52:24.000Z,74274.75
2018-05-16T10:54:55.437Z,74275.76
2018-05-16T10:57:26.742Z,74258.56
2018-05-16T10:59:57.503Z,74248.44
2018-05-16T11:02:28.299Z,74255.52
2018-05-16T11:04:59.575Z,74225.16
2018-05-16T11:07:31.848Z,74198.86
2018-05-16T11:10:02.667Z,74201.89
2018-05-16T11:12:33.957Z,74298.02
2018-05-16T11:15:05.363Z,74284.87
2018-05-16T11:17:36.075Z,74172.55
2018-05-16T11:20:07.284Z,74082.50
2018-05-16T11:22:38.040Z,74188.74
2018-05-16T11:25:09.180Z,74208.98
2018-05-16T11:27:39.944Z,74223.14
2018-05-16T11:30:11.199Z,74296.00
2018-05-16T11:32:42.934Z,74328.38
2018-05-16T11:35:14.198Z,74338.49
2018-05-16T11:37:44.982Z,74316.23
2018-05-16T11:40:16.035Z,74314.20
2018-05-16T11:42:46.800Z,74382.00
2018-05-16T11:45:17.800Z,74409.32
2018-05-16T11:47:48.867Z,74383.02
2018-05-16T11:50:20.009Z,74283.86
2018-05-16T11:52:52.396Z,74400.22
2018-05-16T11:55:31.607Z,74314.20
2018-05-16T11:58:03.783Z,74310.16
2018-05-16T12:00:35.212Z,74263.61
2018-05-16T12:03:06.721Z,74275.76
2018-05-16T12:05:38.672Z,74292.95
2018-05-16T12:08:10.050Z,74293.97
2018-05-16T12:10:40.851Z,74144.22
2018-05-16T12:13:12.074Z,74135.12
2018-05-16T12:15:43.225Z,74215.05
2018-05-16T12:18:14.546Z,74183.69
2018-05-16T12:20:45.548Z,74183.69
2018-05-16T12:23:16.348Z,74198.86
2018-05-16T12:25:47.523Z,74202.91
2018-05-16T12:28:18.276Z,74284.87
2018-05-16T12:30:49.205Z,74316.23
2018-05-16T12:33:20.440Z,74340.52
2018-05-16T12:35:51.432Z,74296.00
2018-05-16T12:38:22.398Z,74223.14
2018-05-16T12:40:53.503Z,74234.27
2018-05-16T12:43:29.463Z,74153.33
2018-05-16T12:46:01.655Z,74133.09
2018-05-16T12:48:33.051Z,74097.68
2018-05-16T12:51:03.886Z,74056.20
2018-05-16T12:53:35.086Z,74200.88
2018-05-16T12:56:06.227Z,74140.17
2018-05-16T12:58:37.009Z,74133.09
2018-05-16T13:01:07.791Z,74135.12
2018-05-16T13:03:39.103Z,74108.81
2018-05-16T13:06:10.012Z,74035.97
2018-05-16T13:08:40.835Z,73999.54
2018-05-16T13:11:12.040Z,74076.44
2018-05-16T13:13:43.036Z,74123.98
2018-05-16T13:16:13.860Z,74174.58
2018-05-16T13:18:44.984Z,74177.61
2018-05-16T13:21:15.781Z,74074.41
2018-05-16T13:23:46.708Z,74136.13
2018-05-16T13:26:17.854Z,74042.03
2018-05-16T13:28:48.733Z,73986.39
2018-05-16T13:31:19.607Z,74023.83
2018-05-16T13:33:50.672Z,74015.73
2018-05-16T13:36:21.578Z,74107.80
2018-05-16T13:38:52.839Z,74064.30
2018-05-16T13:41:23.692Z,73966.16
2018-05-16T13:43:54.532Z,73962.11
2018-05-16T13:46:25.653Z,74011.68
2018-05-16T13:48:56.556Z,73990.44
2018-05-16T13:51:27.348Z,74023.83
2018-05-16T13:53:58.487Z,74017.75
2018-05-16T13:56:29.249Z,74117.91
2018-05-16T13:59:00.016Z,74212.02
2018-05-16T14:01:31.111Z,74348.61
2018-05-16T14:04:01.900Z,74288.91
2018-05-16T14:06:32.779Z,74403.25
2018-05-16T14:09:04.427Z,74370.88
2018-05-16T14:11:35.177Z,74316.23
2018-05-16T14:14:06.414Z,74199.88
2018-05-16T14:16:37.437Z,74213.02
2018-05-16T14:19:08.226Z,74209.98
2018-05-16T14:21:39.273Z,74174.58
2018-05-16T14:24:10.097Z,74163.45
2018-05-16T14:26:40.907Z,74191.78
2018-05-16T14:29:12.006Z,74158.39
2018-05-16T14:31:43.115Z,74206.95
2018-05-16T14:34:14.635Z,74121.97
2018-05-16T14:36:45.722Z,74117.91
2018-05-16T14:39:16.588Z,74111.84
2018-05-16T14:41:51.715Z,74103.75
2018-05-16T14:44:26.623Z,74090.59
2018-05-16T14:46:57.827Z,74079.47
2018-05-16T14:49:29.620Z,74062.27
2018-05-16T14:52:00.736Z,74057.21
2018-05-16T14:54:31.613Z,74039.00
2018-05-16T14:57:02.392Z,74037.98
2018-05-16T14:59:33.481Z,74010.67
2018-05-16T15:02:04.321Z,74019.77
2018-05-16T15:04:35.120Z,74007.63
2018-05-16T15:07:08.628Z,73989.42
2018-05-16T15:09:40.995Z,73971.21
2018-05-16T15:12:14.003Z,73954.02
2018-05-16T15:14:44.826Z,73916.58
2018-05-16T15:17:15.693Z,73953.00
2018-05-16T15:19:46.812Z,73906.45
2018-05-16T15:22:17.618Z,73906.45
2018-05-16T15:24:48.455Z,73882.18
2018-05-16T15:27:19.711Z,73975.26
2018-05-16T15:29:50.556Z,73900.39
2018-05-16T15:32:21.339Z,73913.55
2018-05-16T15:34:52.368Z,73898.37
2018-05-16T15:37:23.184Z,73908.48
2018-05-16T15:39:54.312Z,73888.25
2018-05-16T15:42:25.090Z,73892.30
2018-05-16T15:44:55.904Z,74055.19
2018-05-16T15:47:27.284Z,74052.16
2018-05-16T15:49:58.254Z,73939.84
2018-05-16T15:52:29.020Z,73985.38
2018-05-16T15:55:00.060Z,73904.44
2018-05-16T15:57:31.431Z,73899.38
2018-05-16T16:00:02.298Z,73961.09
2018-05-16T16:02:41.965Z,73898.37
2018-05-16T16:05:13.157Z,73986.39
2018-05-16T16:07:44.290Z,74024.84
2018-05-16T16:10:15.464Z,74075.42
2018-05-16T16:12:46.355Z,74162.44
2018-05-16T16:15:17.423Z,73985.38
2018-05-16T16:17:49.049Z,74116.91
2018-05-16T16:20:20.540Z,74125.00
2018-05-16T16:22:51.420Z,74051.14
2018-05-16T16:25:22.568Z,74060.24
2018-05-16T16:27:53.555Z,74031.91
2018-05-16T16:30:24.312Z,74051.14
2018-05-16T16:32:55.465Z,74051.14
2018-05-16T16:35:26.418Z,73988.41
2018-05-16T16:37:58.726Z,74003.59
2018-05-16T16:40:29.827Z,73978.30
2018-05-16T16:43:00.599Z,73945.92
2018-05-16T16:45:31.448Z,73887.23
2018-05-16T16:48:02.704Z,73978.30
2018-05-16T16:50:33.581Z,73923.66
2018-05-16T16:53:04.316Z,73929.73
2018-05-16T16:55:35.615Z,73876.11
2018-05-16T16:58:06.424Z,73890.27
2018-05-16T17:00:37.244Z,73849.80
2018-05-16T17:03:08.500Z,73890.27
2018-05-16T17:05:39.613Z,73863.97
2018-05-16T17:08:11.241Z,73938.84
2018-05-16T17:10:42.375Z,73984.36
2018-05-16T17:13:17.064Z,73936.81
2018-05-16T17:15:48.228Z,73943.89
2018-05-16T17:18:19.055Z,73933.78
2018-05-16T17:20:49.848Z,74000.55
2018-05-16T17:23:21.019Z,73980.31
2018-05-16T17:25:51.859Z,74065.30
2018-05-16T17:28:22.607Z,73945.92
2018-05-16T17:30:53.910Z,73960.08
2018-05-16T17:33:25.007Z,73991.45
2018-05-16T17:35:56.180Z,74003.59
2018-05-16T17:38:26.981Z,74002.58
2018-05-16T17:40:57.817Z,74007.63
2018-05-16T17:43:28.945Z,74008.64
2018-05-16T17:45:59.898Z,74007.63
2018-05-16T17:48:30.667Z,74012.69
2018-05-16T17:51:01.885Z,74034.95
2018-05-16T17:53:32.649Z,74052.16
2018-05-16T17:56:03.408Z,74028.88
2018-05-16T17:58:34.625Z,74054.17
2018-05-16T18:01:05.468Z,74069.35
2018-05-16T18:03:36.256Z,74090.59
2018-05-16T18:06:07.371Z,74069.35
2018-05-16T18:08:38.092Z,74095.66
2018-05-16T18:11:09.199Z,74099.70
2018-05-16T18:16:54.043Z,74098.69
2018-05-16T18:19:25.107Z,74128.03
2018-05-16T18:21:57.210Z,74108.81
2018-05-16T18:24:28.067Z,74120.95
2018-05-16T18:27:00.155Z,74112.86
2018-05-16T18:29:30.953Z,74109.83
2018-05-16T18:32:02.005Z,74077.45
2018-05-16T18:34:32.839Z,74114.88
2018-05-16T18:37:03.608Z,74135.12
2018-05-16T18:39:34.839Z,74285.88
2018-05-16T18:42:05.630Z,74313.20
2018-05-16T18:44:36.863Z,74279.80
2018-05-16T18:47:08.472Z,74215.05
2018-05-16T18:49:39.183Z,74278.80
2018-05-16T18:52:10.126Z,74364.80
2018-05-16T18:54:41.595Z,74392.13
2018-05-16T18:57:12.371Z,74363.79
2018-05-16T18:59:43.618Z,74418.42
2018-05-16T19:02:14.446Z,74392.13
2018-05-16T19:04:45.846Z,74427.53
2018-05-16T19:07:17.847Z,74424.50
2018-05-16T19:09:48.620Z,74443.73
2018-05-16T19:12:20.083Z,74447.77
2018-05-16T19:14:50.867Z,74461.94
2018-05-16T19:17:21.770Z,74461.94
2018-05-16T19:19:53.329Z,74451.82
2018-05-16T19:22:24.348Z,74473.07
2018-05-16T19:24:55.188Z,74489.27
2018-05-16T19:27:26.241Z,74512.53
2018-05-16T19:29:57.039Z,74512.53
2018-05-16T19:32:28.416Z,74526.70
2018-05-16T19:34:59.675Z,74543.91
2018-05-16T19:37:30.477Z,74552.00
2018-05-16T19:40:01.307Z,74558.07
2018-05-16T19:42:32.357Z,74559.08
2018-05-16T19:45:03.146Z,74568.19
2018-05-16T19:47:33.916Z,74571.22
2018-05-16T19:50:04.979Z,74562.12
2018-05-16T19:52:35.796Z,74568.19
2018-05-16T19:55:06.765Z,74565.16
2018-05-16T19:57:38.543Z,74557.06
2018-05-16T20:00:09.715Z,74556.05
2018-05-16T20:02:40.762Z,74568.19
2018-05-16T20:05:12.528Z,74555.03
2018-05-16T20:07:43.247Z,74545.93
2018-05-16T20:10:14.374Z,74531.77
2018-05-16T20:12:45.271Z,74536.82
2018-05-16T20:15:16.180Z,74528.73
2018-05-16T20:17:47.834Z,74500.39
2018-05-16T20:20:18.687Z,74513.55
2018-05-16T20:22:49.813Z,74534.80
2018-05-16T20:25:21.140Z,74558.07
2018-05-16T20:27:52.427Z,74559.08
2018-05-16T20:30:23.491Z,74584.38
2018-05-16T20:32:54.268Z,74584.38
2018-05-16T20:35:25.008Z,74568.19
2018-05-16T20:37:56.032Z,74564.14
2018-05-16T20:40:26.791Z,74558.07
2018-05-16T20:42:57.614Z,74579.32
2018-05-16T20:45:28.668Z,74533.78
2018-05-16T20:47:59.517Z,74557.06
2018-05-16T20:50:30.311Z,74565.16
2018-05-16T20:53:01.345Z,74559.08
2018-05-16T20:55:32.572Z,74548.97
2018-05-16T20:58:03.323Z,74509.50
2018-05-16T21:00:34.356Z,74546.94
2018-05-16T21:03:05.104Z,74556.05
2018-05-16T21:05:36.172Z,74580.33
2018-05-16T21:08:07.655Z,74591.46
2018-05-16T21:10:38.411Z,74597.53
2018-05-16T21:13:09.483Z,74597.53
2018-05-16T21:15:40.207Z,74614.73
2018-05-16T21:18:10.968Z,74590.45
2018-05-16T21:20:42.016Z,74609.67
2018-05-16T21:23:13.441Z,74603.61
2018-05-16T21:25:44.191Z,74607.66
2018-05-16T21:28:15.273Z,74630.92
2018-05-16T21:30:46.048Z,74629.91
2018-05-16T21:33:17.183Z,74643.08
2018-05-16T21:35:48.972Z,74628.91
2018-05-16T21:38:20.101Z,74640.03
2018-05-16T21:40:51.809Z,74637.00
2018-05-16T21:43:22.543Z,74648.13
2018-05-16T21:45:53.299Z,74641.05
2018-05-16T21:48:24.339Z,74620.81
2018-05-16T21:50:55.635Z,74661.29
2018-05-16T21:53:26.435Z,74660.27
2018-05-16T21:55:58.257Z,74611.70
2018-05-16T21:58:29.408Z,74579.32
2018-05-16T22:01:00.147Z,74597.53
2018-05-16T22:03:31.175Z,74587.41
2018-05-16T22:06:01.988Z,74624.86
2018-05-16T22:08:32.826Z,74606.64
2018-05-16T22:11:03.885Z,74613.73
2018-05-16T22:13:35.113Z,74619.80
2018-05-16T22:16:06.289Z,74641.05
2018-05-16T22:18:38.529Z,74669.38
2018-05-16T22:21:09.296Z,74672.42
2018-05-16T22:23:40.709Z,74662.30
2018-05-16T22:26:11.755Z,74589.44
2018-05-16T22:28:42.907Z,74606.64
2018-05-16T22:31:19.411Z,74582.36
2018-05-16T22:33:55.512Z,74585.39
2018-05-16T22:36:31.350Z,74619.80
2018-05-16T22:39:07.946Z,74609.67
2018-05-16T22:41:43.812Z,74563.13
2018-05-16T22:44:18.844Z,74611.70
2018-05-16T22:46:50.387Z,74611.70
2018-05-16T22:49:21.961Z,74602.59
2018-05-16T22:51:53.316Z,74565.16
2018-05-16T22:54:24.369Z,74599.56
2018-05-16T22:56:55.688Z,74598.55
2018-05-16T22:59:31.330Z,74582.36
2018-05-16T23:02:02.143Z,74529.73
2018-05-16T23:04:32.932Z,74556.05
2018-05-16T23:07:04.047Z,74570.21
2018-05-16T23:09:34.753Z,74593.48
2018-05-16T23:12:06.229Z,74571.22
2018-05-16T23:14:37.252Z,74579.32
2018-05-16T23:17:08.611Z,74566.17
2018-05-16T23:19:40.352Z,74562.12
2018-05-16T23:22:15.388Z,74547.95
2018-05-16T23:24:46.119Z,74558.07
2018-05-16T23:27:17.449Z,74557.06
2018-05-16T23:29:49.011Z,74583.37
2018-05-16T23:32:20.847Z,74574.27
2018-05-16T23:34:51.907Z,74570.21
2018-05-16T23:37:23.943Z,74533.78
2018-05-16T23:39:55.662Z,74585.39
2018-05-16T23:42:27.282Z,74573.25
2018-05-16T23:44:58.912Z,74549.98
2018-05-16T23:47:30.647Z,74554.02
2018-05-16T23:50:02.334Z,74550.98
2018-05-16T23:52:33.878Z,74571.22
2018-05-16T23:55:04.902Z,74569.20
2018-05-16T23:57:36.323Z,74590.45
